Airfield :
LOGIN :

Register | Disclaimer

   EN    FR    IT 

 










Legend :    VFR   Marginal VFR   IFR   Intensive IFR   Very Intensive IFR
Visi :
Ceiling :
>= 8 km
>= 3000ft
5 to 8 km
1000 to 3000 ft
1500m to 5 km
500 to 1000 ft
800 to 1500m
200 to 500 ft
< 800m
< 200 ft
Symbols :   Thunderstorms  Fog  Heavy snow  Heavy precipitations  Wind > 20 kt
SIGMETs :     Misc.  Thunderstorms  Icing  Turbulence  Mountain Waves  Volcanic Ashes







- Airport Elevation : 270 ft
- IATA code : OXF
- Download approach charts


EGTK - Oxford (Kidlington)

CURRENT METAR :
  • 171050Z 25010KT 9999 SCT043 19/09 Q1020

EXPIRED METARs :
  • 170950Z 25007KT 210V280 9999 FEW038 18/11 Q1020
  • 170920Z 24007KT FEW030 18/11 Q1020
  • 170750Z 27007Z 27007KT CAVOK 16/12 Q1019

TAF TAF EGTK
Valid from the 17 at 09:00 until the 17 at 18:00 UTC


170756Z 1709/1718 24005KT 9999 FEW040
No reported NOTAMs for that airfield.



MET'MAP, your aeronautical weather chart ! - Copyright ORBIFLY December 2007 - Disclaimer

ORBIFLY MET'MAP TEAM :

Programming & Development : Alexandra Zaïnal
Concept & Development : Baudouin d'Aumeries
Co-Development & Prog : Marc-Olivier Méhu
Technical & hardware support : Manuel Goepfert

Contact : metmap@orbifly.com




SOURCES & CREDITS :

   NOAA